createdAt,value
2019-03-29T00:00:34.997Z,7.33
2019-03-29T00:05:38.647Z,7.67
2019-03-29T00:10:42.471Z,7.67
2019-03-29T00:15:46.384Z,7.20
2019-03-29T00:20:50.487Z,6.57
2019-03-29T00:25:54.151Z,7.23
2019-03-29T00:30:57.735Z,7.70
2019-03-29T00:36:01.405Z,7.97
2019-03-29T00:41:05.047Z,7.77
2019-03-29T00:46:08.622Z,7.70
2019-03-29T00:51:12.284Z,7.50
2019-03-29T00:56:16.500Z,7.87
2019-03-29T01:01:20.083Z,7.73
2019-03-29T01:06:23.672Z,8.90
2019-03-29T01:11:27.342Z,8.40
2019-03-29T01:16:31.365Z,8.20
2019-03-29T01:21:35.026Z,8.50
2019-03-29T01:26:38.602Z,8.27
2019-03-29T01:31:42.207Z,8.80
2019-03-29T01:36:45.848Z,7.97
2019-03-29T01:41:49.502Z,8.50
2019-03-29T01:46:53.187Z,8.30
2019-03-29T01:51:56.852Z,7.93
2019-03-29T01:57:00.504Z,8.17
2019-03-29T02:02:04.084Z,8.23
2019-03-29T02:07:07.741Z,8.20
2019-03-29T02:12:11.392Z,8.20
2019-03-29T02:17:15.061Z,7.87
2019-03-29T02:22:18.652Z,8.47
2019-03-29T02:27:22.317Z,8.27
2019-03-29T02:32:25.997Z,8.07
2019-03-29T02:37:29.909Z,7.80
2019-03-29T02:42:33.888Z,8.20
2019-03-29T02:47:37.633Z,7.60
2019-03-29T02:52:41.395Z,8.53
2019-03-29T02:57:45.109Z,7.90
2019-03-29T03:02:48.695Z,7.80
2019-03-29T03:07:52.587Z,7.53
2019-03-29T03:12:56.314Z,12.07
2019-03-29T03:17:59.919Z,7.67
2019-03-29T03:23:03.576Z,8.13
2019-03-29T03:28:07.226Z,8.60
2019-03-29T03:33:12.394Z,8.07
2019-03-29T03:38:16.388Z,8.97
2019-03-29T03:43:20.054Z,8.40
2019-03-29T03:48:23.708Z,8.10
2019-03-29T03:53:27.369Z,8.77
2019-03-29T03:58:32.185Z,7.83
2019-03-29T04:03:35.987Z,12.50
2019-03-29T04:08:40.785Z,9.00
2019-03-29T04:13:44.379Z,8.77
2019-03-29T04:18:48.113Z,10.00
2019-03-29T04:23:51.725Z,9.23
2019-03-29T04:29:04.058Z,10.67
2019-03-29T04:34:00.640Z,11.23
2019-03-29T04:39:05.861Z,9.87
2019-03-29T04:44:09.523Z,8.67
2019-03-29T04:49:13.232Z,9.17
2019-03-29T04:54:17.272Z,10.13
2019-03-29T04:59:20.978Z,8.97
2019-03-29T05:04:24.598Z,9.53
2019-03-29T05:09:28.350Z,10.13
2019-03-29T05:14:33.990Z,12.30
2019-03-29T05:19:37.257Z,11.50
2019-03-29T05:24:41.275Z,11.20
2019-03-29T05:29:44.858Z,11.47
2019-03-29T05:34:48.454Z,11.73
2019-03-29T05:39:52.041Z,10.73
2019-03-29T05:44:55.636Z,12.37
2019-03-29T05:49:59.240Z,12.20
2019-03-29T05:55:03.387Z,11.83
2019-03-29T06:00:12.569Z,12.83
2019-03-29T06:05:16.270Z,12.30
2019-03-29T06:10:19.932Z,13.67
2019-03-29T06:15:23.909Z,12.97
2019-03-29T06:20:27.518Z,13.97
2019-03-29T06:25:31.215Z,14.67
2019-03-29T06:30:35.050Z,14.57
2019-03-29T06:35:42.058Z,12.63
2019-03-29T06:40:45.651Z,12.53
2019-03-29T06:45:49.402Z,10.00
2019-03-29T06:50:53.287Z,10.83
2019-03-29T06:55:59.390Z,12.80
2019-03-29T07:01:03.785Z,11.37
2019-03-29T07:06:07.447Z,10.67
2019-03-29T07:11:17.316Z,9.67
2019-03-29T07:16:16.488Z,9.10
2019-03-29T07:21:21.883Z,8.93
2019-03-29T07:26:25.825Z,9.60
2019-03-29T07:31:29.490Z,10.57
2019-03-29T07:36:33.090Z,10.87
2019-03-29T07:41:39.679Z,13.13
2019-03-29T07:46:43.423Z,12.67
2019-03-29T07:51:47.401Z,12.07
2019-03-29T07:56:51.129Z,12.93
2019-03-29T08:01:54.907Z,13.27
2019-03-29T08:06:58.498Z,13.07
2019-03-29T08:12:02.165Z,11.80
2019-03-29T08:17:05.834Z,10.90
2019-03-29T08:22:09.586Z,10.30
2019-03-29T08:27:13.330Z,10.77
2019-03-29T08:32:16.990Z,10.53
2019-03-29T08:37:20.669Z,10.10
2019-03-29T08:42:24.750Z,10.80
2019-03-29T08:47:28.836Z,10.23
2019-03-29T08:52:32.386Z,10.60
2019-03-29T08:57:36.542Z,10.90
2019-03-29T09:02:40.283Z,10.67
2019-03-29T09:07:45.479Z,10.23
2019-03-29T09:12:49.086Z,10.80
2019-03-29T09:17:52.766Z,10.73
2019-03-29T09:22:56.436Z,11.50
2019-03-29T09:28:00.112Z,10.67
2019-03-29T09:33:03.851Z,10.90
2019-03-29T09:38:07.520Z,11.60
2019-03-29T09:43:11.638Z,10.93
2019-03-29T09:48:16.216Z,10.57
2019-03-29T09:53:19.813Z,11.07
2019-03-29T09:58:23.962Z,11.00
2019-03-29T10:03:27.568Z,10.73
2019-03-29T10:08:31.234Z,10.97
2019-03-29T10:13:35.288Z,11.27
2019-03-29T10:18:38.891Z,11.17
2019-03-29T10:23:42.935Z,12.57
2019-03-29T10:28:46.534Z,11.90
2019-03-29T10:33:50.328Z,11.07
2019-03-29T10:38:53.925Z,11.30
2019-03-29T10:43:57.589Z,10.73
2019-03-29T10:49:01.184Z,12.10
2019-03-29T10:54:05.033Z,11.83
2019-03-29T10:59:08.709Z,11.27
2019-03-29T11:04:12.700Z,10.93
2019-03-29T11:09:16.373Z,11.43
2019-03-29T11:14:20.043Z,11.00
2019-03-29T11:19:23.723Z,11.00
2019-03-29T11:24:27.764Z,11.13
2019-03-29T11:29:31.446Z,10.87
2019-03-29T11:34:35.189Z,12.60
2019-03-29T11:39:39.134Z,10.13
2019-03-29T11:44:42.753Z,10.50
2019-03-29T11:49:46.433Z,9.87
2019-03-29T11:54:50.051Z,10.50
2019-03-29T11:59:53.898Z,10.53
2019-03-29T12:04:57.903Z,10.07
2019-03-29T12:10:01.928Z,10.07
2019-03-29T12:15:07.936Z,9.77
2019-03-29T12:20:11.774Z,10.33
2019-03-29T12:25:15.548Z,11.60
2019-03-29T12:30:31.113Z,10.20
2019-03-29T12:35:24.491Z,9.83
2019-03-29T12:40:28.313Z,9.37
2019-03-29T12:45:32.054Z,8.70
2019-03-29T12:50:35.793Z,9.07
2019-03-29T12:55:39.929Z,8.77
2019-03-29T13:00:43.538Z,9.13
2019-03-29T13:05:47.285Z,8.03
2019-03-29T13:10:51.517Z,9.03
2019-03-29T13:15:55.366Z,7.83
2019-03-29T13:20:59.119Z,8.67
2019-03-29T13:26:02.914Z,7.13
2019-03-29T13:31:06.578Z,7.57
2019-03-29T13:36:10.537Z,8.80
2019-03-29T13:41:14.205Z,8.13
2019-03-29T13:46:17.878Z,7.20
2019-03-29T13:51:21.489Z,7.40
2019-03-29T13:56:25.146Z,8.20
2019-03-29T14:01:28.799Z,7.97
2019-03-29T14:06:32.804Z,7.57
2019-03-29T14:11:36.629Z,7.20
2019-03-29T14:16:40.294Z,8.00
2019-03-29T14:21:43.889Z,7.60
2019-03-29T14:26:47.814Z,8.47
2019-03-29T14:31:54.022Z,7.73
2019-03-29T14:36:59.252Z,7.10
2019-03-29T14:42:02.037Z,6.70
2019-03-29T14:47:05.783Z,7.33
2019-03-29T14:52:09.727Z,7.10
2019-03-29T14:57:13.721Z,6.67
2019-03-29T15:02:17.379Z,7.37
2019-03-29T15:07:21.725Z,7.17
2019-03-29T15:12:25.386Z,7.30
2019-03-29T15:17:29.469Z,6.57
2019-03-29T15:22:33.277Z,7.43
2019-03-29T15:27:36.898Z,8.10
2019-03-29T15:32:40.638Z,6.90
2019-03-29T15:37:44.362Z,7.83
2019-03-29T15:42:48.026Z,8.10
2019-03-29T15:47:52.087Z,7.50
2019-03-29T15:52:55.964Z,7.57
2019-03-29T15:57:59.571Z,6.57
2019-03-29T16:03:03.615Z,7.97
2019-03-29T16:08:07.529Z,7.53
2019-03-29T16:13:11.304Z,6.70
2019-03-29T16:18:14.957Z,7.03
2019-03-29T16:23:19.015Z,6.70
2019-03-29T16:28:22.619Z,6.80
2019-03-29T16:33:26.525Z,6.50
2019-03-29T16:38:30.117Z,6.87
2019-03-29T16:43:33.705Z,7.17
2019-03-29T16:48:37.725Z,6.73
2019-03-29T16:53:41.492Z,6.90
2019-03-29T16:58:45.171Z,6.83
2019-03-29T17:03:49.105Z,6.43
2019-03-29T17:08:52.772Z,7.13
2019-03-29T17:13:56.763Z,8.83
2019-03-29T17:19:00.673Z,10.73
2019-03-29T17:24:04.503Z,11.37
2019-03-29T17:29:08.227Z,9.83
2019-03-29T17:34:11.981Z,8.10
2019-03-29T17:39:15.795Z,8.13
2019-03-29T17:44:19.372Z,6.60
2019-03-29T17:49:23.041Z,7.50
2019-03-29T17:54:26.693Z,6.80
2019-03-29T17:59:30.476Z,6.50
2019-03-29T18:04:34.168Z,7.93
2019-03-29T18:09:37.760Z,9.50
2019-03-29T18:14:41.673Z,8.37
2019-03-29T18:19:45.262Z,12.20
2019-03-29T18:24:48.941Z,14.33
2019-03-29T18:29:52.618Z,8.70
2019-03-29T18:34:56.749Z,9.13
2019-03-29T18:40:00.594Z,8.60
2019-03-29T18:45:07.076Z,7.37
2019-03-29T18:50:11.217Z,7.87
2019-03-29T18:55:14.818Z,7.03
2019-03-29T19:00:23.989Z,7.10
2019-03-29T19:05:28.222Z,7.33
2019-03-29T19:10:32.066Z,12.67
2019-03-29T19:15:35.797Z,10.83
2019-03-29T19:20:39.529Z,7.67
2019-03-29T19:25:43.622Z,9.50
2019-03-29T19:30:47.278Z,6.70
2019-03-29T19:35:50.985Z,6.07
2019-03-29T19:40:54.929Z,6.50
2019-03-29T19:45:58.598Z,8.63
2019-03-29T19:51:02.218Z,8.53
2019-03-29T19:56:05.981Z,8.50
2019-03-29T20:01:09.856Z,7.57
2019-03-29T20:06:13.850Z,8.07
2019-03-29T20:11:17.591Z,7.80
2019-03-29T20:16:21.361Z,6.97
2019-03-29T20:21:25.028Z,9.47
2019-03-29T20:26:28.763Z,11.47
2019-03-29T20:31:32.421Z,8.13
2019-03-29T20:41:53.767Z,9.00
2019-03-29T20:46:57.827Z,8.90
2019-03-29T20:52:01.497Z,8.83
2019-03-29T20:57:05.229Z,7.37
2019-03-29T21:02:09.210Z,7.60
2019-03-29T21:07:12.906Z,6.97
2019-03-29T21:12:16.509Z,8.33
2019-03-29T21:17:20.995Z,7.30
2019-03-29T21:22:26.196Z,6.80
2019-03-29T21:27:30.029Z,8.97
2019-03-29T21:32:34.003Z,9.70
2019-03-29T21:37:38.021Z,8.40
2019-03-29T21:42:42.026Z,7.40
2019-03-29T21:47:45.672Z,6.70
2019-03-29T21:52:49.398Z,6.90
2019-03-29T21:57:53.507Z,6.67
2019-03-29T22:02:57.602Z,8.37
2019-03-29T22:08:01.648Z,13.97
2019-03-29T22:13:05.367Z,13.27
2019-03-29T22:18:09.136Z,10.30
2019-03-29T22:23:12.858Z,9.37
2019-03-29T22:28:16.514Z,8.20
2019-03-29T22:33:20.331Z,9.73
2019-03-29T22:38:23.915Z,7.43
2019-03-29T22:43:27.873Z,8.90
2019-03-29T22:48:31.525Z,8.10
2019-03-29T22:53:35.182Z,7.53
2019-03-29T22:58:38.769Z,7.23
2019-03-29T23:03:42.598Z,6.87
2019-03-29T23:08:46.193Z,7.90
2019-03-29T23:13:49.859Z,9.47
2019-03-29T23:19:05.928Z,8.33
2019-03-29T23:23:59.150Z,7.67
2019-03-29T23:29:03.336Z,7.80
2019-03-29T23:34:07.010Z,8.43
2019-03-29T23:39:10.637Z,8.53
2019-03-29T23:44:14.282Z,8.80
2019-03-29T23:49:21.381Z,8.60
2019-03-29T23:54:23.432Z,7.13
2019-03-29T23:59:27.012Z,6.80
